Time;durP1;ratioP1;P1;durP2;ratioP2;P2;SDS_P1;SDS_P2;PMS_P1;PMS_P2;Temp;Humidity;BMP_temperature;BMP_pressure;BME280_temperature;BME280_humidity;BME280_pressure;Samples;Min_cycle;Max_cycle;Signal;HPM_P1;HPM_P2
2022/07/30 00:01:04;;;;;;;;;;;17.10;99.90;;;;;;5097806;28;19908;-70
2022/07/30 00:03:31;;;;;;;;;;;17.10;99.90;;;;;;5097795;28;20041;-70
2022/07/30 00:05:57;;;;;;;;;;;17.10;99.90;;;;;;5097831;28;20442;-70
2022/07/30 00:08:22;;;;;;;;;;;17.00;99.90;;;;;;5098069;28;19908;-70
2022/07/30 00:10:48;;;;;;;;;;;17.00;99.90;;;;;;5097867;28;19908;-70
2022/07/30 00:13:14;;;;;;;;;;;16.90;99.90;;;;;;5098540;28;20402;-70
2022/07/30 00:15:39;;;;;;;;;;;16.90;99.90;;;;;;5098469;28;20337;-70
2022/07/30 00:18:05;;;;;;;;;;;16.90;99.90;;;;;;5097632;28;19961;-70
2022/07/30 00:20:30;;;;;;;;;;;16.90;99.90;;;;;;5079211;28;19904;-70
2022/07/30 00:22:56;;;;;;;;;;;17.00;99.90;;;;;;5097936;28;19904;-70
2022/07/30 00:25:21;;;;;;;;;;;17.00;99.90;;;;;;5097311;28;19940;-70
2022/07/30 00:27:47;;;;;;;;;;;17.00;99.90;;;;;;5097504;28;19904;-70
2022/07/30 00:30:13;;;;;;;;;;;17.10;99.90;;;;;;5097090;28;19904;-70
2022/07/30 00:32:39;;;;;;;;;;;17.10;99.90;;;;;;5097064;28;19951;-70
2022/07/30 00:35:05;;;;;;;;;;;17.10;99.90;;;;;;5097390;28;19914;-70
2022/07/30 00:37:30;;;;;;;;;;;17.10;99.90;;;;;;5097737;28;19904;-70
2022/07/30 00:39:56;;;;;;;;;;;17.10;99.90;;;;;;5097027;28;19904;-70
2022/07/30 00:42:24;;;;;;;;;;;17.10;99.90;;;;;;5096989;28;20348;-70
2022/07/30 00:44:53;;;;;;;;;;;17.10;99.90;;;;;;5097034;28;20360;-70
2022/07/30 00:47:19;;;;;;;;;;;17.10;99.90;;;;;;5079132;28;19908;-70
2022/07/30 00:49:45;;;;;;;;;;;17.00;99.90;;;;;;5096864;28;19991;-71
2022/07/30 00:52:11;;;;;;;;;;;17.00;99.90;;;;;;5096485;28;20002;-71
2022/07/30 00:54:36;;;;;;;;;;;17.00;99.90;;;;;;5096419;28;19911;-71
2022/07/30 00:57:02;;;;;;;;;;;17.00;99.90;;;;;;5096725;28;19904;-71
2022/07/30 00:59:27;;;;;;;;;;;17.00;99.90;;;;;;5096666;28;20379;-71
2022/07/30 01:01:53;;;;;;;;;;;17.00;99.90;;;;;;5095786;28;20348;-71
2022/07/30 01:04:19;;;;;;;;;;;17.00;99.90;;;;;;5096407;28;19908;-71
2022/07/30 01:06:45;;;;;;;;;;;17.00;99.90;;;;;;5096710;28;19934;-71
2022/07/30 01:09:10;;;;;;;;;;;17.00;99.90;;;;;;5096236;28;19907;-71
2022/07/30 01:11:37;;;;;;;;;;;17.00;99.90;;;;;;5096100;28;19914;-71
2022/07/30 01:14:03;;;;;;;;;;;17.00;99.90;;;;;;5096406;28;19911;-70
2022/07/30 01:16:29;;;;;;;;;;;17.00;99.90;;;;;;5096039;28;19904;-70
2022/07/30 01:21:42;;;;;;;;;;;17.00;99.90;;;;;;5096357;28;20371;-70
2022/07/30 01:24:26;;;;;;;;;;;17.00;99.90;;;;;;5095939;28;19919;-70
2022/07/30 01:26:52;;;;;;;;;;;17.00;99.90;;;;;;5078143;28;19904;-70
2022/07/30 01:29:18;;;;;;;;;;;17.00;99.90;;;;;;5095761;28;19904;-69
2022/07/30 01:31:45;;;;;;;;;;;17.00;99.90;;;;;;5095719;28;19908;-71
2022/07/30 01:34:13;;;;;;;;;;;17.00;99.90;;;;;;5096280;28;19904;-71
2022/07/30 01:36:39;;;;;;;;;;;17.00;99.90;;;;;;5095635;28;19904;-71
2022/07/30 01:39:05;;;;;;;;;;;17.00;99.90;;;;;;5095662;28;19961;-71
2022/07/30 01:41:31;;;;;;;;;;;17.00;99.90;;;;;;5095651;28;19908;-71
2022/07/30 01:43:57;;;;;;;;;;;17.00;99.90;;;;;;5095568;28;20364;-71
2022/07/30 01:46:24;;;;;;;;;;;17.00;99.90;;;;;;5095477;28;19904;-71
2022/07/30 01:48:49;;;;;;;;;;;16.90;99.90;;;;;;5077225;28;19904;-71
2022/07/30 01:51:16;;;;;;;;;;;16.90;99.90;;;;;;5095350;28;19912;-71
2022/07/30 01:53:43;;;;;;;;;;;16.90;99.90;;;;;;5095671;28;19904;-71
2022/07/30 01:56:10;;;;;;;;;;;17.00;99.90;;;;;;5095275;28;19999;-71
2022/07/30 01:58:37;;;;;;;;;;;16.90;99.90;;;;;;5095302;28;19915;-71
2022/07/30 02:01:03;;;;;;;;;;;17.00;99.90;;;;;;5095199;28;20379;-71
2022/07/30 02:03:28;;;;;;;;;;;16.90;99.90;;;;;;5095422;28;19904;-71
2022/07/30 02:05:59;;;;;;;;;;;16.90;99.90;;;;;;5094954;28;19959;-71
2022/07/30 02:08:24;;;;;;;;;;;16.90;99.90;;;;;;5095394;28;19970;-71
2022/07/30 02:10:52;;;;;;;;;;;16.80;99.90;;;;;;5094909;28;19904;-71
2022/07/30 02:13:22;;;;;;;;;;;16.80;99.90;;;;;;5094355;28;19973;-71
2022/07/30 02:15:55;;;;;;;;;;;16.80;99.90;;;;;;5094463;28;19958;-71
2022/07/30 02:18:21;;;;;;;;;;;16.70;99.90;;;;;;5094839;28;19904;-71
2022/07/30 02:20:50;;;;;;;;;;;16.70;99.90;;;;;;5094827;28;20481;-71
2022/07/30 02:23:17;;;;;;;;;;;16.60;99.90;;;;;;5076657;28;19998;-71
2022/07/30 02:25:45;;;;;;;;;;;16.60;99.90;;;;;;5094886;28;19911;-71
2022/07/30 02:28:13;;;;;;;;;;;16.60;99.90;;;;;;5094702;28;19911;-71
2022/07/30 02:30:43;;;;;;;;;;;16.60;99.90;;;;;;5094824;28;20282;-70
2022/07/30 02:33:11;;;;;;;;;;;16.60;99.90;;;;;;5095134;28;19911;-70
2022/07/30 02:35:37;;;;;;;;;;;16.70;99.90;;;;;;5094464;28;19927;-70
2022/07/30 02:38:04;;;;;;;;;;;16.70;99.90;;;;;;5094522;28;20322;-71
2022/07/30 02:40:30;;;;;;;;;;;16.70;99.90;;;;;;5094751;28;20352;-71
2022/07/30 02:42:55;;;;;;;;;;;16.60;99.90;;;;;;5094709;28;19915;-72
2022/07/30 02:45:22;;;;;;;;;;;16.60;99.90;;;;;;5094586;28;19904;-73
2022/07/30 02:47:50;;;;;;;;;;;16.50;99.90;;;;;;5094610;28;19911;-73
2022/07/30 02:50:16;;;;;;;;;;;16.60;99.90;;;;;;5094554;28;19961;-73
2022/07/30 02:52:43;;;;;;;;;;;16.60;99.90;;;;;;5094204;28;19960;-72
2022/07/30 02:55:10;;;;;;;;;;;16.60;99.90;;;;;;5094443;28;19904;-72
2022/07/30 02:57:36;;;;;;;;;;;16.50;99.90;;;;;;5094237;28;20279;-73
2022/07/30 03:00:03;;;;;;;;;;;16.50;99.90;;;;;;5094535;28;20404;-72
2022/07/30 03:02:30;;;;;;;;;;;16.50;99.90;;;;;;5094075;28;19904;-72
2022/07/30 03:04:56;;;;;;;;;;;16.50;99.90;;;;;;5094100;28;19912;-72
2022/07/30 03:07:22;;;;;;;;;;;16.40;99.90;;;;;;5094333;28;19904;-72
2022/07/30 03:09:50;;;;;;;;;;;16.40;99.90;;;;;;5094075;28;19911;-72
2022/07/30 03:12:15;;;;;;;;;;;16.50;99.90;;;;;;5075894;28;20006;-71
2022/07/30 03:14:42;;;;;;;;;;;16.50;99.90;;;;;;5093966;28;19946;-71
2022/07/30 03:17:07;;;;;;;;;;;16.50;99.90;;;;;;5093953;28;19904;-72
2022/07/30 03:19:36;;;;;;;;;;;16.40;99.90;;;;;;5093976;28;19911;-72
2022/07/30 03:22:02;;;;;;;;;;;16.50;99.90;;;;;;5075840;28;20081;-72
2022/07/30 03:24:27;;;;;;;;;;;16.40;99.90;;;;;;5093773;28;20394;-72
2022/07/30 03:26:54;;;;;;;;;;;16.50;99.90;;;;;;5075423;28;19940;-71
2022/07/30 03:29:21;;;;;;;;;;;16.40;99.90;;;;;;5093900;28;19904;-71
2022/07/30 03:31:47;;;;;;;;;;;16.40;99.90;;;;;;5093696;28;19908;-72
2022/07/30 03:34:13;;;;;;;;;;;16.40;99.90;;;;;;5093801;28;20002;-71
2022/07/30 03:36:40;;;;;;;;;;;16.40;99.90;;;;;;5093688;28;19942;-71
2022/07/30 03:39:06;;;;;;;;;;;16.30;99.90;;;;;;5093753;28;19912;-71
2022/07/30 03:41:31;;;;;;;;;;;16.20;99.90;;;;;;5075639;28;20022;-71
2022/07/30 03:43:57;;;;;;;;;;;16.10;99.90;;;;;;5093745;28;20284;-71
2022/07/30 03:46:24;;;;;;;;;;;15.90;99.90;;;;;;5093734;28;19904;-71
2022/07/30 03:48:50;;;;;;;;;;;15.90;99.90;;;;;;5094221;28;19903;-71
2022/07/30 03:51:16;;;;;;;;;;;15.80;99.90;;;;;;5093571;28;19912;-71
2022/07/30 03:53:42;;;;;;;;;;;15.80;99.90;;;;;;5093613;28;19912;-71
2022/07/30 03:56:08;;;;;;;;;;;15.80;99.90;;;;;;5093575;28;19946;-71
2022/07/30 03:58:33;;;;;;;;;;;15.70;99.90;;;;;;5093836;28;20326;-71
2022/07/30 04:00:59;;;;;;;;;;;15.80;99.90;;;;;;5093533;28;19957;-72
2022/07/30 04:03:25;;;;;;;;;;;15.80;99.90;;;;;;5093543;28;19908;-72
2022/07/30 04:05:51;;;;;;;;;;;15.80;99.90;;;;;;5075257;28;19912;-71
2022/07/30 04:08:16;;;;;;;;;;;15.80;99.90;;;;;;5093808;28;19911;-72
2022/07/30 04:10:42;;;;;;;;;;;15.80;99.90;;;;;;5093467;28;19950;-72
2022/07/30 04:13:08;;;;;;;;;;;15.90;99.90;;;;;;5093717;28;19908;-75
2022/07/30 04:15:36;;;;;;;;;;;15.90;99.90;;;;;;5093586;28;19912;-74
2022/07/30 04:18:03;;;;;;;;;;;15.90;99.90;;;;;;5075351;28;19904;-71
2022/07/30 04:20:31;;;;;;;;;;;15.90;99.90;;;;;;5093364;28;19951;-71
2022/07/30 04:22:57;;;;;;;;;;;15.90;99.90;;;;;;5093631;28;19904;-71
2022/07/30 04:25:23;;;;;;;;;;;15.90;99.90;;;;;;5093527;28;20360;-71
2022/07/30 04:27:49;;;;;;;;;;;15.90;99.90;;;;;;5093331;28;19938;-71
2022/07/30 04:30:15;;;;;;;;;;;16.00;99.90;;;;;;5075111;28;20350;-71
2022/07/30 04:32:41;;;;;;;;;;;15.90;99.90;;;;;;5093119;28;19912;-71
2022/07/30 04:35:07;;;;;;;;;;;16.00;99.90;;;;;;5093206;28;19904;-71
2022/07/30 04:37:33;;;;;;;;;;;15.90;99.90;;;;;;5094419;28;19908;-71
2022/07/30 04:39:58;;;;;;;;;;;16.00;99.90;;;;;;5096827;28;20423;-71
2022/07/30 04:42:25;;;;;;;;;;;16.00;99.90;;;;;;5096740;28;20360;-71
2022/07/30 04:44:51;;;;;;;;;;;16.00;99.90;;;;;;5096631;28;19904;-70
2022/07/30 04:47:17;;;;;;;;;;;16.00;99.90;;;;;;5096938;28;19915;-71
2022/07/30 04:49:43;;;;;;;;;;;16.00;99.90;;;;;;5096675;28;20037;-71
2022/07/30 04:52:09;;;;;;;;;;;16.10;99.90;;;;;;5096506;28;19908;-71
2022/07/30 04:54:41;;;;;;;;;;;16.10;99.90;;;;;;5096476;28;19904;-71
2022/07/30 04:57:07;;;;;;;;;;;16.10;99.90;;;;;;5096531;28;20033;-71
2022/07/30 04:59:36;;;;;;;;;;;16.10;99.90;;;;;;5096469;28;20040;-71
2022/07/30 05:02:02;;;;;;;;;;;16.10;99.90;;;;;;5096649;28;19904;-71
2022/07/30 05:04:28;;;;;;;;;;;16.10;99.90;;;;;;5096194;28;19915;-71
2022/07/30 05:06:54;;;;;;;;;;;16.10;99.90;;;;;;5096265;28;19908;-71
2022/07/30 05:09:19;;;;;;;;;;;16.10;99.90;;;;;;5096573;28;19910;-71
2022/07/30 05:11:52;;;;;;;;;;;16.00;99.90;;;;;;5096154;28;19907;-71
2022/07/30 05:14:18;;;;;;;;;;;16.00;99.90;;;;;;5078322;28;20318;-71
2022/07/30 05:16:44;;;;;;;;;;;15.90;99.90;;;;;;5096067;28;19930;-71
2022/07/30 05:19:10;;;;;;;;;;;15.90;99.90;;;;;;5096386;28;19904;-71
2022/07/30 05:21:35;;;;;;;;;;;15.90;99.90;;;;;;5096013;28;19914;-71
2022/07/30 05:24:01;;;;;;;;;;;15.90;99.90;;;;;;5096511;28;20375;-71
2022/07/30 05:26:26;;;;;;;;;;;15.90;99.90;;;;;;5095888;28;20326;-71
2022/07/30 05:28:52;;;;;;;;;;;15.90;99.90;;;;;;5095891;28;20364;-71
2022/07/30 05:31:18;;;;;;;;;;;15.90;99.90;;;;;;5095759;28;20288;-71
2022/07/30 05:33:43;;;;;;;;;;;16.00;99.90;;;;;;5095987;28;20272;-71
2022/07/30 05:36:09;;;;;;;;;;;16.00;99.90;;;;;;5095926;28;19992;-71
2022/07/30 05:38:34;;;;;;;;;;;16.00;99.90;;;;;;5095715;28;19904;-71
2022/07/30 05:41:00;;;;;;;;;;;16.00;99.90;;;;;;5095644;28;19911;-71
2022/07/30 05:43:25;;;;;;;;;;;16.00;99.90;;;;;;5095899;28;19908;-71
2022/07/30 05:45:51;;;;;;;;;;;16.00;99.90;;;;;;5095495;28;19904;-71
2022/07/30 05:48:17;;;;;;;;;;;16.00;99.90;;;;;;5095169;28;20372;-71
2022/07/30 05:50:42;;;;;;;;;;;16.00;99.90;;;;;;5095445;28;19910;-72
2022/07/30 05:53:08;;;;;;;;;;;16.00;99.90;;;;;;5095297;28;19908;-72
2022/07/30 05:55:33;;;;;;;;;;;16.00;99.90;;;;;;5095286;28;19953;-71
2022/07/30 05:57:59;;;;;;;;;;;16.00;99.90;;;;;;5095303;28;19926;-71
2022/07/30 06:00:24;;;;;;;;;;;16.00;99.90;;;;;;5095255;28;19954;-71
2022/07/30 06:02:50;;;;;;;;;;;16.00;99.90;;;;;;5095199;28;20004;-71
2022/07/30 06:05:16;;;;;;;;;;;16.00;99.90;;;;;;5094979;28;19924;-71
2022/07/30 06:07:41;;;;;;;;;;;15.90;99.90;;;;;;5095388;28;19904;-72
2022/07/30 06:10:07;;;;;;;;;;;16.00;99.90;;;;;;5095067;28;19904;-72
2022/07/30 06:12:33;;;;;;;;;;;16.00;99.90;;;;;;5095255;28;19908;-72
2022/07/30 06:14:58;;;;;;;;;;;16.00;99.90;;;;;;5094895;28;19904;-71
2022/07/30 06:17:24;;;;;;;;;;;16.00;99.90;;;;;;5095236;28;19943;-72
2022/07/30 06:19:49;;;;;;;;;;;16.10;99.90;;;;;;5094892;28;19904;-72
2022/07/30 06:22:15;;;;;;;;;;;16.10;99.90;;;;;;5094835;28;20072;-72
2022/07/30 06:24:41;;;;;;;;;;;16.10;99.90;;;;;;5095006;28;20380;-71
2022/07/30 06:27:06;;;;;;;;;;;16.10;99.90;;;;;;5094756;28;20033;-71
2022/07/30 06:29:32;;;;;;;;;;;16.10;99.90;;;;;;5094994;28;19955;-71
2022/07/30 06:31:58;;;;;;;;;;;16.10;99.90;;;;;;5094595;28;19968;-72
2022/07/30 06:34:23;;;;;;;;;;;16.00;99.90;;;;;;5094755;28;19930;-71
2022/07/30 06:36:49;;;;;;;;;;;16.10;99.90;;;;;;5094451;28;19903;-71
2022/07/30 06:39:14;;;;;;;;;;;16.10;99.90;;;;;;5094803;28;20344;-72
2022/07/30 06:41:40;;;;;;;;;;;16.10;99.90;;;;;;5094457;28;19903;-72
2022/07/30 06:44:05;;;;;;;;;;;16.10;99.90;;;;;;5094439;28;19943;-72
2022/07/30 06:46:31;;;;;;;;;;;16.20;99.90;;;;;;5094433;28;19911;-71
2022/07/30 06:48:57;;;;;;;;;;;16.30;99.90;;;;;;5094363;28;19912;-72
2022/07/30 06:51:22;;;;;;;;;;;16.30;99.90;;;;;;5094271;28;19907;-72
2022/07/30 06:53:48;;;;;;;;;;;16.30;99.90;;;;;;5094275;28;19904;-72
2022/07/30 06:56:13;;;;;;;;;;;16.40;99.90;;;;;;5094236;28;19998;-71
2022/07/30 06:58:39;;;;;;;;;;;16.40;99.90;;;;;;5094252;28;19904;-72
2022/07/30 07:01:05;;;;;;;;;;;16.40;99.90;;;;;;5093527;28;19904;-72
2022/07/30 07:03:30;;;;;;;;;;;16.50;99.90;;;;;;5094191;28;19904;-72
2022/07/30 07:05:56;;;;;;;;;;;16.50;99.90;;;;;;5093955;28;19915;-71
2022/07/30 07:08:22;;;;;;;;;;;16.50;99.90;;;;;;5094662;28;20279;-70
2022/07/30 07:10:47;;;;;;;;;;;16.60;99.90;;;;;;5094114;28;19930;-69
2022/07/30 07:13:13;;;;;;;;;;;16.60;99.90;;;;;;5093965;28;19961;-70
2022/07/30 07:15:39;;;;;;;;;;;16.60;99.90;;;;;;5094625;28;19904;-70
2022/07/30 07:18:05;;;;;;;;;;;16.60;99.90;;;;;;5094002;28;19908;-70
2022/07/30 07:20:31;;;;;;;;;;;16.70;99.90;;;;;;5093937;28;20321;-70
2022/07/30 07:22:57;;;;;;;;;;;16.70;99.90;;;;;;5094218;28;19934;-70
2022/07/30 07:25:23;;;;;;;;;;;16.70;99.90;;;;;;5094411;28;19994;-70
2022/07/30 07:27:48;;;;;;;;;;;16.80;99.90;;;;;;5075772;28;19987;-70
2022/07/30 07:30:14;;;;;;;;;;;16.70;99.90;;;;;;5094140;28;19911;-70
2022/07/30 07:32:40;;;;;;;;;;;16.90;99.90;;;;;;5094050;28;19978;-69
2022/07/30 07:35:06;;;;;;;;;;;16.90;99.90;;;;;;5075583;28;19908;-70
2022/07/30 07:37:32;;;;;;;;;;;16.90;99.90;;;;;;5093782;28;19904;-69
2022/07/30 07:39:58;;;;;;;;;;;17.00;99.90;;;;;;5094115;28;19911;-69
2022/07/30 07:42:23;;;;;;;;;;;17.10;99.90;;;;;;5093766;28;19905;-69
2022/07/30 07:44:49;;;;;;;;;;;17.10;99.90;;;;;;5093700;28;20306;-69
2022/07/30 07:47:14;;;;;;;;;;;17.20;99.90;;;;;;5094001;28;19904;-69
2022/07/30 07:49:40;;;;;;;;;;;17.30;99.90;;;;;;5093955;28;20275;-69
2022/07/30 07:52:06;;;;;;;;;;;17.40;99.90;;;;;;5094153;28;19911;-69
2022/07/30 07:54:31;;;;;;;;;;;17.50;99.90;;;;;;5075821;28;20317;-69
2022/07/30 07:56:57;;;;;;;;;;;17.60;99.90;;;;;;5093523;28;19911;-69
2022/07/30 07:59:22;;;;;;;;;;;17.60;99.90;;;;;;5093589;28;19929;-69
2022/07/30 08:01:48;;;;;;;;;;;17.60;99.90;;;;;;5093574;28;19971;-70
2022/07/30 08:04:14;;;;;;;;;;;17.70;99.90;;;;;;5093383;28;19915;-70
2022/07/30 08:06:39;;;;;;;;;;;17.70;99.90;;;;;;5093778;28;19912;-69
2022/07/30 08:09:05;;;;;;;;;;;17.80;99.90;;;;;;5093771;28;20082;-70
2022/07/30 08:11:30;;;;;;;;;;;17.90;99.90;;;;;;5094660;28;20010;-69
2022/07/30 08:13:56;;;;;;;;;;;17.90;99.90;;;;;;5097319;28;19907;-69
2022/07/30 08:16:21;;;;;;;;;;;17.90;99.90;;;;;;5097228;28;19904;-69
2022/07/30 08:18:47;;;;;;;;;;;17.90;99.90;;;;;;5097485;28;19904;-69
2022/07/30 08:21:14;;;;;;;;;;;17.90;99.90;;;;;;5097154;28;19904;-69
2022/07/30 08:23:40;;;;;;;;;;;18.00;99.90;;;;;;5097118;28;19904;-69
2022/07/30 08:26:05;;;;;;;;;;;18.00;99.90;;;;;;5097027;28;20069;-69
2022/07/30 08:28:31;;;;;;;;;;;18.10;99.90;;;;;;5078911;28;19904;-69
2022/07/30 08:30:57;;;;;;;;;;;18.10;99.90;;;;;;5097295;28;19958;-69
2022/07/30 08:33:22;;;;;;;;;;;18.00;99.90;;;;;;5078782;28;19912;-69
2022/07/30 08:35:48;;;;;;;;;;;18.00;99.90;;;;;;5096772;28;19911;-69
2022/07/30 08:38:13;;;;;;;;;;;18.10;99.90;;;;;;5096863;28;19904;-69
2022/07/30 08:40:39;;;;;;;;;;;18.20;99.90;;;;;;5096808;28;19918;-69
2022/07/30 08:43:06;;;;;;;;;;;18.20;99.90;;;;;;5096786;28;19993;-69
2022/07/30 08:45:32;;;;;;;;;;;18.20;99.90;;;;;;5096892;28;19904;-69
2022/07/30 08:47:59;;;;;;;;;;;18.10;99.90;;;;;;5096651;28;19911;-69
2022/07/30 08:50:24;;;;;;;;;;;18.10;99.90;;;;;;5096638;28;19911;-69
2022/07/30 08:52:54;;;;;;;;;;;18.10;99.90;;;;;;5096545;28;19908;-69
2022/07/30 08:55:23;;;;;;;;;;;18.00;99.90;;;;;;5096503;28;19907;-68
2022/07/30 08:57:49;;;;;;;;;;;17.90;99.90;;;;;;5096776;28;20271;-68
2022/07/30 09:00:15;;;;;;;;;;;17.80;99.90;;;;;;5096780;28;19911;-68
2022/07/30 09:02:41;;;;;;;;;;;17.80;99.90;;;;;;5096405;28;19911;-69
2022/07/30 09:05:07;;;;;;;;;;;17.60;99.90;;;;;;5096580;28;19912;-70
2022/07/30 09:07:33;;;;;;;;;;;17.50;99.90;;;;;;5096349;28;19927;-70
2022/07/30 09:09:59;;;;;;;;;;;17.50;99.90;;;;;;5096259;28;20305;-69
2022/07/30 09:12:35;;;;;;;;;;;17.30;99.90;;;;;;5096758;28;19908;-70
2022/07/30 09:15:07;;;;;;;;;;;17.20;99.90;;;;;;5096368;28;19904;-69
2022/07/30 09:17:52;;;;;;;;;;;17.10;99.90;;;;;;5077907;28;20365;-69
2022/07/30 09:20:25;;;;;;;;;;;17.00;99.90;;;;;;5095431;28;19911;-69
2022/07/30 09:22:52;;;;;;;;;;;16.90;99.90;;;;;;5095643;28;19904;-69
2022/07/30 09:25:31;;;;;;;;;;;16.80;99.90;;;;;;5095880;28;19911;-69
2022/07/30 09:27:57;;;;;;;;;;;16.80;99.90;;;;;;5096218;28;19947;-69
2022/07/30 09:30:22;;;;;;;;;;;16.80;99.90;;;;;;5095891;28;19904;-69
2022/07/30 09:32:53;;;;;;;;;;;16.80;99.90;;;;;;5096027;28;19912;-69
2022/07/30 09:35:18;;;;;;;;;;;16.70;99.90;;;;;;5095709;28;19904;-69
2022/07/30 09:37:45;;;;;;;;;;;16.70;99.90;;;;;;5095751;28;19904;-69
2022/07/30 09:40:12;;;;;;;;;;;16.70;99.90;;;;;;5095698;28;19904;-69
2022/07/30 09:42:38;;;;;;;;;;;16.70;99.90;;;;;;5095920;28;19904;-69
2022/07/30 09:45:07;;;;;;;;;;;16.70;99.90;;;;;;5095570;28;20002;-69
2022/07/30 09:47:33;;;;;;;;;;;16.80;99.90;;;;;;5095550;28;19957;-69
2022/07/30 09:50:03;;;;;;;;;;;16.90;99.90;;;;;;5095494;28;19904;-69
2022/07/30 09:52:28;;;;;;;;;;;17.10;99.90;;;;;;5095974;28;19908;-69
2022/07/30 09:54:54;;;;;;;;;;;17.30;99.90;;;;;;5095338;28;19956;-69
2022/07/30 09:57:19;;;;;;;;;;;17.50;99.90;;;;;;5095665;28;19899;-69
2022/07/30 09:59:45;;;;;;;;;;;17.60;99.90;;;;;;5095895;28;19907;-69
2022/07/30 10:02:11;;;;;;;;;;;17.80;99.90;;;;;;5095260;28;19930;-69
2022/07/30 10:04:36;;;;;;;;;;;17.90;99.90;;;;;;5076996;28;19916;-69
2022/07/30 10:07:03;;;;;;;;;;;17.90;99.90;;;;;;5095168;28;19943;-69
2022/07/30 10:09:31;;;;;;;;;;;18.00;99.90;;;;;;5095088;28;19904;-69
2022/07/30 10:11:57;;;;;;;;;;;18.20;99.90;;;;;;5095521;28;19912;-69
2022/07/30 10:14:24;;;;;;;;;;;18.40;99.90;;;;;;5094919;28;19904;-69
2022/07/30 10:16:49;;;;;;;;;;;18.70;99.90;;;;;;5094874;28;19911;-69
2022/07/30 10:19:15;;;;;;;;;;;18.90;99.90;;;;;;5095197;28;19904;-70
2022/07/30 10:21:41;;;;;;;;;;;19.00;99.90;;;;;;5095435;28;20329;-70
2022/07/30 10:24:07;;;;;;;;;;;19.10;99.90;;;;;;5094834;28;19918;-69
2022/07/30 10:26:33;;;;;;;;;;;19.10;99.90;;;;;;5095919;28;19954;-69
2022/07/30 10:29:00;;;;;;;;;;;19.20;99.90;;;;;;5094848;28;19908;-69
2022/07/30 10:31:26;;;;;;;;;;;19.30;99.90;;;;;;5095008;28;19915;-69
2022/07/30 10:33:51;;;;;;;;;;;19.20;99.90;;;;;;5094738;28;19911;-69
2022/07/30 10:36:18;;;;;;;;;;;19.30;99.90;;;;;;5094030;28;19904;-69
2022/07/30 10:38:44;;;;;;;;;;;19.30;99.90;;;;;;5094586;28;19911;-69
2022/07/30 10:41:28;;;;;;;;;;;19.20;99.90;;;;;;5094857;28;19904;-67
2022/07/30 10:43:59;;;;;;;;;;;19.20;99.90;;;;;;5095129;28;20248;-67
2022/07/30 10:46:28;;;;;;;;;;;19.40;99.90;;;;;;5094413;28;19904;-67
2022/07/30 10:48:54;;;;;;;;;;;19.60;99.90;;;;;;5094983;28;19904;-69
2022/07/30 10:51:20;;;;;;;;;;;19.70;99.90;;;;;;5094286;28;19904;-69
2022/07/30 10:53:47;;;;;;;;;;;19.90;99.90;;;;;;5094310;28;19907;-69
2022/07/30 10:56:17;;;;;;;;;;;20.00;99.90;;;;;;5076096;28;19904;-69
2022/07/30 10:59:15;;;;;;;;;;;20.10;99.90;;;;;;5094563;28;19911;-67
2022/07/30 11:01:46;;;;;;;;;;;20.10;99.90;;;;;;5059999;28;19939;-67
2022/07/30 11:04:22;;;;;;;;;;;20.20;99.90;;;;;;5093970;28;19919;-67
2022/07/30 11:06:49;;;;;;;;;;;20.30;99.90;;;;;;5075981;28;19908;-67
2022/07/30 11:09:33;;;;;;;;;;;20.40;99.90;;;;;;5094108;28;19904;-67
2022/07/30 11:11:58;;;;;;;;;;;20.50;99.90;;;;;;5093960;28;20007;-67
2022/07/30 11:14:44;;;;;;;;;;;20.60;99.90;;;;;;5094064;28;19946;-68
2022/07/30 11:17:09;;;;;;;;;;;20.60;99.90;;;;;;5093931;28;20257;-67
2022/07/30 11:19:55;;;;;;;;;;;20.70;99.90;;;;;;5093970;28;19957;-67
2022/07/30 11:22:25;;;;;;;;;;;20.70;99.90;;;;;;5093798;28;19910;-67
2022/07/30 11:24:51;;;;;;;;;;;20.60;99.90;;;;;;5093847;28;19911;-67
2022/07/30 11:27:35;;;;;;;;;;;20.60;99.90;;;;;;5093924;28;19979;-67
2022/07/30 11:30:01;;;;;;;;;;;20.60;99.90;;;;;;5093845;28;19955;-67
2022/07/30 11:32:27;;;;;;;;;;;20.60;99.90;;;;;;5094080;28;19908;-67
2022/07/30 11:35:11;;;;;;;;;;;20.60;99.90;;;;;;5094045;28;19993;-67
2022/07/30 11:37:56;;;;;;;;;;;20.70;99.90;;;;;;5093812;28;19991;-67
2022/07/30 11:40:24;;;;;;;;;;;20.80;99.90;;;;;;5093687;28;19904;-67
2022/07/30 11:42:50;;;;;;;;;;;21.10;99.90;;;;;;5093762;28;19996;-67
2022/07/30 11:45:19;;;;;;;;;;;21.20;99.90;;;;;;5094005;28;19994;-67
2022/07/30 11:47:45;;;;;;;;;;;21.40;99.90;;;;;;5097496;28;19904;-67
2022/07/30 11:50:17;;;;;;;;;;;21.50;98.70;;;;;;5079642;28;19930;-68
2022/07/30 11:52:47;;;;;;;;;;;21.50;99.70;;;;;;5097741;28;19958;-67
2022/07/30 11:55:20;;;;;;;;;;;21.70;99.90;;;;;;5097957;28;19990;-67
2022/07/30 11:57:46;;;;;;;;;;;22.00;99.90;;;;;;5098025;28;19908;-68
2022/07/30 12:00:12;;;;;;;;;;;22.20;99.00;;;;;;5097683;28;19904;-67
2022/07/30 12:02:37;;;;;;;;;;;22.30;98.80;;;;;;5097628;28;19904;-68
2022/07/30 12:05:03;;;;;;;;;;;22.40;99.20;;;;;;5097686;28;20272;-68
2022/07/30 12:07:29;;;;;;;;;;;22.40;98.70;;;;;;5097514;28;19995;-68
2022/07/30 12:10:10;;;;;;;;;;;22.20;98.10;;;;;;5097722;28;20267;-68
2022/07/30 12:12:36;;;;;;;;;;;22.10;97.20;;;;;;5097361;28;19908;-68
2022/07/30 12:15:01;;;;;;;;;;;21.80;97.50;;;;;;5097221;28;19911;-68
2022/07/30 12:17:43;;;;;;;;;;;21.60;97.60;;;;;;5097556;28;19912;-68
2022/07/30 12:20:19;;;;;;;;;;;21.50;97.60;;;;;;5097218;28;19904;-68
2022/07/30 12:22:44;;;;;;;;;;;21.30;98.10;;;;;;5097493;28;19904;-68
2022/07/30 12:25:10;;;;;;;;;;;21.30;99.00;;;;;;5097090;28;19995;-68
2022/07/30 12:27:36;;;;;;;;;;;21.20;99.90;;;;;;5097129;28;20435;-68
2022/07/30 12:30:03;;;;;;;;;;;21.20;99.90;;;;;;5097087;28;19943;-68
2022/07/30 12:32:30;;;;;;;;;;;21.10;99.90;;;;;;5097611;28;19911;-68
2022/07/30 12:34:56;;;;;;;;;;;21.00;97.90;;;;;;5096922;28;20304;-68
2022/07/30 12:37:21;;;;;;;;;;;21.00;97.70;;;;;;5096964;28;19904;-68
2022/07/30 12:39:48;;;;;;;;;;;21.10;98.00;;;;;;5097075;28;19904;-68
2022/07/30 12:42:20;;;;;;;;;;;21.20;99.00;;;;;;5096837;28;19903;-68
2022/07/30 12:44:45;;;;;;;;;;;21.20;98.80;;;;;;5097030;28;19904;-69
2022/07/30 12:47:24;;;;;;;;;;;21.20;98.30;;;;;;5097055;28;20477;-69
2022/07/30 12:49:50;;;;;;;;;;;21.20;98.00;;;;;;5097475;28;19912;-69
2022/07/30 12:52:25;;;;;;;;;;;21.20;99.80;;;;;;5096580;28;19908;-69
2022/07/30 12:54:56;;;;;;;;;;;21.20;98.50;;;;;;5096511;28;19983;-69
2022/07/30 12:57:22;;;;;;;;;;;21.20;97.10;;;;;;5077859;28;19904;-69
2022/07/30 12:59:59;;;;;;;;;;;21.20;98.10;;;;;;5095965;28;19911;-69
2022/07/30 13:02:33;;;;;;;;;;;21.40;98.40;;;;;;5096792;28;19904;-69
2022/07/30 13:05:00;;;;;;;;;;;21.50;98.30;;;;;;5096381;28;19935;-69
2022/07/30 13:07:28;;;;;;;;;;;21.50;98.60;;;;;;5096898;28;19902;-69
2022/07/30 13:10:10;;;;;;;;;;;21.50;98.30;;;;;;5096831;28;19927;-69
2022/07/30 13:12:36;;;;;;;;;;;21.50;98.40;;;;;;5096456;28;20353;-69
2022/07/30 13:15:01;;;;;;;;;;;21.60;97.60;;;;;;5096473;28;19904;-69
2022/07/30 13:17:27;;;;;;;;;;;21.60;96.00;;;;;;5096745;28;19912;-69
2022/07/30 13:19:52;;;;;;;;;;;21.60;95.70;;;;;;5096108;28;19904;-69
2022/07/30 13:22:18;;;;;;;;;;;21.60;94.60;;;;;;5096937;28;19910;-69
2022/07/30 13:24:44;;;;;;;;;;;21.40;95.30;;;;;;5095984;28;19904;-69
2022/07/30 13:27:09;;;;;;;;;;;21.40;96.40;;;;;;5096301;28;19900;-68
2022/07/30 13:29:35;;;;;;;;;;;21.30;95.80;;;;;;5096557;28;19904;-69
2022/07/30 13:32:00;;;;;;;;;;;21.30;95.40;;;;;;5096141;28;19908;-69
2022/07/30 13:34:26;;;;;;;;;;;21.30;96.60;;;;;;5077733;28;19967;-68
2022/07/30 13:36:51;;;;;;;;;;;21.50;97.10;;;;;;5095730;28;19926;-68
2022/07/30 13:39:17;;;;;;;;;;;21.80;96.90;;;;;;5096049;28;19911;-68
2022/07/30 13:41:42;;;;;;;;;;;22.20;96.70;;;;;;5095577;28;19953;-68
2022/07/30 13:44:08;;;;;;;;;;;22.60;96.40;;;;;;5095651;28;20360;-68
2022/07/30 13:46:34;;;;;;;;;;;23.00;93.60;;;;;;5095636;28;19911;-69
2022/07/30 13:48:59;;;;;;;;;;;23.10;93.00;;;;;;5095557;28;19990;-69
2022/07/30 13:51:25;;;;;;;;;;;23.00;93.20;;;;;;5096010;28;19904;-69
2022/07/30 13:53:50;;;;;;;;;;;22.90;93.30;;;;;;5095842;28;20371;-69
2022/07/30 13:56:16;;;;;;;;;;;22.80;93.50;;;;;;5075859;28;20291;-69
2022/07/30 13:58:42;;;;;;;;;;;22.50;93.70;;;;;;5093756;28;19907;-71
2022/07/30 14:01:08;;;;;;;;;;;22.40;94.50;;;;;;5093296;28;19904;-70
2022/07/30 14:03:34;;;;;;;;;;;22.20;94.00;;;;;;5094332;28;20421;-69
2022/07/30 14:06:00;;;;;;;;;;;22.00;94.80;;;;;;5094102;28;19937;-70
2022/07/30 14:08:27;;;;;;;;;;;21.80;95.40;;;;;;5094775;28;19909;-68
2022/07/30 14:10:53;;;;;;;;;;;21.70;95.80;;;;;;5095291;28;19904;-69
2022/07/30 14:13:20;;;;;;;;;;;21.60;95.70;;;;;;5094911;28;20434;-69
2022/07/30 14:15:45;;;;;;;;;;;21.60;96.10;;;;;;5095225;28;19908;-69
2022/07/30 14:18:11;;;;;;;;;;;21.50;96.20;;;;;;5094994;28;19904;-68